Time;durP1;ratioP1;P1;durP2;ratioP2;P2;SDS_P1;SDS_P2;PMS_P1;PMS_P2;Temp;Humidity;BMP_temperature;BMP_pressure;BME280_temperature;BME280_humidity;BME280_pressure;Samples;Min_cycle;Max_cycle;Signal;HPM_P1;HPM_P2
2019/04/07 00:00:49;;;;;;;7.1;6.5;;;;;;;22.63;33.03711;987.7625;;;;
2019/04/07 00:03:18;;;;;;;7;6.3;;;;;;;22.62;33.03613;987.8091;;;;
2019/04/07 00:05:46;;;;;;;6.9;6.3;;;;;;;22.62;33.02441;987.8775;;;;
2019/04/07 00:08:10;;;;;;;7.2;6.6;;;;;;;22.61;33.02441;987.8206;;;;
2019/04/07 00:10:41;;;;;;;7.4;6.7;;;;;;;22.61;33.03613;987.8029;;;;
2019/04/07 00:13:15;;;;;;;7;6.4;;;;;;;22.6;33.03516;987.7774;;;;
2019/04/07 00:15:44;;;;;;;6.8;6.2;;;;;;;22.6;33.03418;987.783;;;;
2019/04/07 00:18:12;;;;;;;6.8;6.2;;;;;;;22.6;33.02344;987.8594;;;;
2019/04/07 00:20:44;;;;;;;7.3;6.6;;;;;;;22.59;33.02246;987.7712;;;;
2019/04/07 00:23:19;;;;;;;7;6.3;;;;;;;22.59;33.02246;987.7985;;;;
2019/04/07 00:25:54;;;;;;;7.3;6.6;;;;;;;22.59;32.9873;987.7751;;;;
2019/04/07 00:28:29;;;;;;;6.9;6.3;;;;;;;22.58;33.00977;987.7594;;;;
2019/04/07 00:30:58;;;;;;;7.1;6.4;;;;;;;22.58;32.98633;987.769;;;;
2019/04/07 00:33:25;;;;;;;7.3;6.7;;;;;;;22.57;33.00977;987.9895;;;;
2019/04/07 00:35:55;;;;;;;7.3;6.6;;;;;;;22.57;33.00879;988.0266;;;;
2019/04/07 00:38:20;;;;;;;7.2;6.5;;;;;;;22.57;32.99707;988.0184;;;;
2019/04/07 00:40:52;;;;;;;6.7;6.1;;;;;;;22.56;32.99707;988.0147;;;;
2019/04/07 00:43:29;;;;;;;7;6.4;;;;;;;22.56;32.99609;988.0339;;;;
2019/04/07 00:45:52;;;;;;;7.5;6.9;;;;;;;22.54;33.03027;988.0883;;;;
2019/04/07 00:48:27;;;;;;;7.3;6.6;;;;;;;22.55;32.98438;988.1079;;;;
2019/04/07 00:50:59;;;;;;;7.2;6.6;;;;;;;22.54;32.9834;988.0647;;;;
2019/04/07 00:53:33;;;;;;;7.2;6.6;;;;;;;22.54;32.97168;988.0979;;;;
2019/04/07 00:56:01;;;;;;;7.1;6.5;;;;;;;22.54;32.9834;988.1075;;;;
2019/04/07 00:58:25;;;;;;;7.6;6.9;;;;;;;22.53;32.9707;988.1267;;;;
2019/04/07 01:00:52;;;;;;;7.5;6.8;;;;;;;22.53;32.9707;988.1404;;;;
2019/04/07 01:03:19;;;;;;;7.6;6.9;;;;;;;22.53;32.98242;988.1736;;;;
2019/04/07 01:05:48;;;;;;;7.5;6.8;;;;;;;22.53;32.95898;988.2087;;;;
2019/04/07 01:08:16;;;;;;;7.2;6.6;;;;;;;22.53;32.93555;988.1541;;;;
2019/04/07 01:10:45;;;;;;;7.3;6.6;;;;;;;22.53;32.93555;988.205;;;;
2019/04/07 01:13:18;;;;;;;7.1;6.5;;;;;;;22.52;32.94629;988.2339;;;;
2019/04/07 01:15:45;;;;;;;7.5;6.7;;;;;;;22.55;32.90137;988.2231;;;;
2019/04/07 01:18:19;;;;;;;7.1;6.4;;;;;;;22.58;32.82129;988.2338;;;;
2019/04/07 01:20:54;;;;;;;7.2;6.5;;;;;;;22.59;32.79883;988.2224;;;;
2019/04/07 01:23:25;;;;;;;7.5;6.8;;;;;;;22.61;32.77637;988.3283;;;;
2019/04/07 01:25:57;;;;;;;7.3;6.7;;;;;;;22.61;32.75293;988.217;;;;
2019/04/07 01:28:30;;;;;;;7.4;6.8;;;;;;;22.6;32.76367;988.2148;;;;
2019/04/07 01:31:03;;;;;;;7.9;6.4;;;;;;;22.6;32.76367;988.1561;;;;
2019/04/07 01:33:33;;;;;;;7.4;6.7;;;;;;;22.6;32.78613;988.0701;;;;
2019/04/07 01:36:06;;;;;;;7.4;6.7;;;;;;;22.6;32.77441;988.0837;;;;
2019/04/07 01:38:42;;;;;;;7.4;6.7;;;;;;;22.59;32.81055;988.0815;;;;
2019/04/07 01:41:19;;;;;;;7.5;6.8;;;;;;;22.58;32.82129;988.1421;;;;
2019/04/07 01:43:53;;;;;;;8;7;;;;;;;22.57;32.84375;988.1085;;;;
2019/04/07 01:49:19;;;;;;;7.6;6.9;;;;;;;22.6;32.77539;988.1699;;;;
2019/04/07 01:56:56;;;;;;;7.2;6.6;;;;;;;22.61;32.77637;988.178;;;;
2019/04/07 02:01:38;;;;;;;7.3;6.7;;;;;;;22.6;32.76367;988.2286;;;;
2019/04/07 02:06:34;;;;;;;7.2;6.6;;;;;;;22.61;32.74023;988.1583;;;;
2019/04/07 02:09:16;;;;;;;7.5;6.8;;;;;;;22.62;32.70605;988.2662;;;;
2019/04/07 02:14:13;;;;;;;7.5;6.8;;;;;;;22.63;32.68359;988.2762;;;;
2019/04/07 02:16:32;;;;;;;7.1;6.4;;;;;;;22.62;32.68262;988.2972;;;;
2019/04/07 02:21:37;;;;;;;7.1;6.4;;;;;;;22.6;32.69238;988.2792;;;;
2019/04/07 02:26:45;;;;;;;7.2;6.5;;;;;;;22.6;32.69238;988.3572;;;;
2019/04/07 02:39:03;;;;;;;6.9;6.3;;;;;;;22.53;32.75879;988.3222;;;;
2019/04/07 02:41:29;;;;;;;6.8;6.2;;;;;;;22.53;32.77051;988.4316;;;;
2019/04/07 02:43:58;;;;;;;6.7;6.1;;;;;;;22.52;32.76855;988.3979;;;;
2019/04/07 02:48:10;;;;;;;7.6;6.5;;;;;;;22.51;32.79199;988.3684;;;;
2019/04/07 02:49:09;;;;;;;6.8;6.2;;;;;;;22.49;32.82617;988.368;;;;
2019/04/07 02:51:34;;;;;;;6.9;6.3;;;;;;;22.49;32.83789;988.3695;;;;
2019/04/07 02:56:33;;;;;;;6.7;6.1;;;;;;;22.47;32.84766;988.4061;;;;
2019/04/07 02:59:34;;;;;;;6.8;6.2;;;;;;;22.46;32.85938;988.367;;;;
2019/04/07 03:01:49;;;;;;;7.2;6.6;;;;;;;22.45;32.85938;988.4409;;;;
2019/04/07 03:06:59;;;;;;;6.9;6.3;;;;;;;22.43;32.88184;988.3544;;;;
2019/04/07 03:11:54;;;;;;;7.6;6.9;;;;;;;22.45;32.83496;988.4331;;;;
2019/04/07 03:14:58;;;;;;;7.1;6.5;;;;;;;22.45;32.82422;988.3862;;;;
2019/04/07 03:16:55;;;;;;;6.7;6.1;;;;;;;22.47;32.78906;988.4472;;;;
2019/04/07 03:24:38;;;;;;;7.2;6.5;;;;;;;22.49;32.73145;988.4734;;;;
2019/04/07 03:30:16;;;;;;;7.4;6.7;;;;;;;22.5;32.68457;988.4305;;;;
2019/04/07 03:32:20;;;;;;;6.4;5.9;;;;;;;22.5;32.67383;988.4208;;;;
2019/04/07 03:37:34;;;;;;;7.3;6.7;;;;;;;22.51;32.66309;988.4191;;;;
2019/04/07 03:40:23;;;;;;;7.2;6.5;;;;;;;22.5;32.66211;988.3839;;;;
2019/04/07 03:42:54;;;;;;;6.6;6;;;;;;;22.5;32.65039;988.4386;;;;
2019/04/07 03:44:53;;;;;;;6.7;6.1;;;;;;;22.5;32.65039;988.4072;;;;
2019/04/07 03:47:26;;;;;;;7.4;6.7;;;;;;;22.49;32.68457;988.4789;;;;
2019/04/07 03:49:54;;;;;;;6.6;6.1;;;;;;;22.5;32.65039;988.4933;;;;
2019/04/07 03:52:32;;;;;;;6.9;6.2;;;;;;;22.5;32.65039;988.5165;;;;
2019/04/07 04:08:44;;;;;;;7;6.4;;;;;;;22.49;32.6377;988.6004;;;;
2019/04/07 04:10:40;;;;;;;6.7;6.1;;;;;;;22.49;32.61328;988.6606;;;;
2019/04/07 04:15:55;;;;;;;6.8;6.2;;;;;;;22.49;32.60156;988.5963;;;;
2019/04/07 04:17:58;;;;;;;6.8;6.2;;;;;;;22.48;32.61328;988.6174;;;;
2019/04/07 04:20:29;;;;;;;7;6.4;;;;;;;22.48;32.60059;988.6858;;;;
2019/04/07 04:23:00;;;;;;;7;6.3;;;;;;;22.47;32.60059;988.6777;;;;
2019/04/07 04:25:30;;;;;;;6.8;6.2;;;;;;;22.49;32.57813;988.7017;;;;
2019/04/07 04:28:02;;;;;;;6.3;5.7;;;;;;;22.48;32.56641;988.7075;;;;
2019/04/07 04:30:31;;;;;;;6.7;6.1;;;;;;;22.49;32.56641;988.7112;;;;
2019/04/07 04:33:02;;;;;;;6.6;6;;;;;;;22.48;32.56543;988.7637;;;;
2019/04/07 04:35:33;;;;;;;6.2;5.7;;;;;;;22.48;32.55371;988.7405;;;;
2019/04/07 04:38:04;;;;;;;6.4;5.8;;;;;;;22.51;32.49707;988.8837;;;;
2019/04/07 04:40:34;;;;;;;6.6;6;;;;;;;22.51;32.47363;988.9015;;;;
2019/04/07 04:43:06;;;;;;;6.6;6;;;;;;;22.51;32.47363;988.839;;;;
2019/04/07 04:45:36;;;;;;;6.2;5.7;;;;;;;22.51;32.46191;988.9073;;;;
2019/04/07 04:48:06;;;;;;;6.7;6.1;;;;;;;22.5;32.47363;988.999;;;;
2019/04/07 04:50:38;;;;;;;6.6;6;;;;;;;22.51;32.4502;988.9562;;;;
2019/04/07 04:53:08;;;;;;;6.4;5.8;;;;;;;22.51;32.43848;989.0067;;;;
2019/04/07 04:55:39;;;;;;;6.5;5.9;;;;;;;22.52;32.41504;989.105;;;;
2019/04/07 04:58:11;;;;;;;6.6;6;;;;;;;22.53;32.4043;989.1031;;;;
2019/04/07 05:00:40;;;;;;;6.2;5.7;;;;;;;22.53;32.38086;989.0895;;;;
2019/04/07 05:03:11;;;;;;;6.3;5.7;;;;;;;22.54;32.35742;989.0314;;;;
2019/04/07 05:05:42;;;;;;;6.5;5.9;;;;;;;22.56;32.3125;989.0728;;;;
2019/04/07 05:08:12;;;;;;;6.3;5.8;;;;;;;22.58;32.27832;989.0773;;;;
2019/04/07 05:10:42;;;;;;;6.8;6.2;;;;;;;22.57;32.26563;989.0928;;;;
2019/04/07 05:13:13;;;;;;;6.8;6.2;;;;;;;22.58;32.24219;989.2003;;;;
2019/04/07 05:15:44;;;;;;;6.4;5.9;;;;;;;22.58;32.23047;989.0869;;;;
2019/04/07 05:18:15;;;;;;;7.2;6.6;;;;;;;22.56;32.23047;989.0809;;;;
2019/04/07 05:20:45;;;;;;;6.9;6.2;;;;;;;22.58;32.19531;989.1456;;;;
2019/04/07 05:23:16;;;;;;;6.5;5.9;;;;;;;22.56;32.18262;989.1453;;;;
2019/04/07 05:25:47;;;;;;;7.2;6.6;;;;;;;22.55;32.18262;989.1605;;;;
2019/04/07 05:28:18;;;;;;;7.1;6.4;;;;;;;22.55;32.1582;989.2151;;;;
2019/04/07 05:30:48;;;;;;;7.3;6.6;;;;;;;22.57;32.12402;989.2431;;;;
2019/04/07 05:33:20;;;;;;;6.9;6.2;;;;;;;22.58;32.08887;989.2413;;;;
2019/04/07 05:35:49;;;;;;;6.8;6.2;;;;;;;22.57;32.06445;989.2704;;;;
2019/04/07 05:38:21;;;;;;;6.8;6.1;;;;;;;22.58;32.05469;989.259;;;;
2019/04/07 05:40:51;;;;;;;7.3;6.6;;;;;;;22.59;32.03125;989.2946;;;;
2019/04/07 05:43:21;;;;;;;6.8;6.2;;;;;;;22.59;31.99609;989.3159;;;;
2019/04/07 05:45:52;;;;;;;7.1;6.5;;;;;;;22.6;31.99609;989.3278;;;;
2019/04/07 05:48:23;;;;;;;7.6;6.9;;;;;;;22.61;31.96289;989.3381;;;;
2019/04/07 05:50:56;;;;;;;7.1;6.5;;;;;;;22.63;31.93945;989.3894;;;;
2019/04/07 05:53:24;;;;;;;7.5;6.8;;;;;;;22.63;31.92773;989.4481;;;;
2019/04/07 05:55:52;;;;;;;6.7;6.1;;;;;;;22.64;31.92871;989.4777;;;;
2019/04/07 05:58:20;;;;;;;7.4;6.7;;;;;;;22.65;31.92871;989.4445;;;;
2019/04/07 06:00:54;;;;;;;7.6;6.8;;;;;;;22.64;31.94043;989.4874;;;;
2019/04/07 06:03:23;;;;;;;7.4;6.7;;;;;;;22.63;31.97559;989.4792;;;;
2019/04/07 06:05:55;;;;;;;7.5;6.7;;;;;;;22.62;31.99805;989.5413;;;;
2019/04/07 06:08:33;;;;;;;8;7.2;;;;;;;22.59;32.0791;989.525;;;;
2019/04/07 06:11:01;;;;;;;8;7.3;;;;;;;22.58;32.1123;989.5557;;;;
2019/04/07 06:13:36;;;;;;;7.8;7.1;;;;;;;22.55;32.1709;989.5978;;;;
2019/04/07 06:16:07;;;;;;;7.4;6.7;;;;;;;22.55;32.19434;989.6252;;;;
2019/04/07 06:18:40;;;;;;;7.8;7;;;;;;;22.54;32.22852;989.6562;;;;
2019/04/07 06:21:15;;;;;;;8.4;7.6;;;;;;;22.55;32.22852;989.6487;;;;
2019/04/07 06:23:49;;;;;;;7.6;6.9;;;;;;;22.54;32.25195;989.6425;;;;
2019/04/07 06:26:21;;;;;;;7.4;6.8;;;;;;;22.53;32.29785;989.6772;;;;
2019/04/07 06:28:51;;;;;;;7.8;7.1;;;;;;;22.54;32.31055;989.6425;;;;
2019/04/07 06:31:23;;;;;;;7.6;6.9;;;;;;;22.54;32.32227;989.6248;;;;
2019/04/07 06:33:53;;;;;;;8.3;7.5;;;;;;;22.56;32.28906;989.532;;;;
2019/04/07 06:36:24;;;;;;;7.9;7.1;;;;;;;22.6;32.24414;989.6248;;;;
2019/04/07 06:38:59;;;;;;;7.7;7;;;;;;;22.64;32.18848;989.5772;;;;
2019/04/07 06:41:29;;;;;;;7.8;7.1;;;;;;;22.67;32.17871;989.5801;;;;
2019/04/07 06:43:59;;;;;;;7.6;7;;;;;;;22.66;32.22461;989.5875;;;;
2019/04/07 06:46:40;;;;;;;7.3;6.6;;;;;;;22.7;32.13379;989.6551;;;;
2019/04/07 06:49:07;;;;;;;7.8;7.1;;;;;;;22.72;32.11133;989.5561;;;;
2019/04/07 06:51:45;;;;;;;7.7;6.9;;;;;;;22.74;32.08887;989.6699;;;;
2019/04/07 06:54:07;;;;;;;7.7;6.6;;;;;;;22.74;32.10156;989.6506;;;;
2019/04/07 06:57:14;;;;;;;7.9;7.1;;;;;;;22.75;32.08984;989.6447;;;;
2019/04/07 06:59:10;;;;;;;7.2;6.6;;;;;;;22.78;32.05664;989.6635;;;;
2019/04/07 07:01:45;;;;;;;6.9;6.2;;;;;;;22.78;32.06836;989.6417;;;;
2019/04/07 07:04:20;;;;;;;7;6.4;;;;;;;22.78;32.0918;989.6909;;;;
2019/04/07 07:16:55;;;;;;;7.5;6.8;;;;;;;22.76;32.26758;989.692;;;;
2019/04/07 07:21:44;;;;;;;7.7;7;;;;;;;22.72;32.38281;989.7456;;;;
2019/04/07 07:24:00;;;;;;;7.8;7.1;;;;;;;22.73;32.39551;989.7478;;;;
2019/04/07 07:26:31;;;;;;;7.4;6.8;;;;;;;22.72;32.44141;989.7611;;;;
2019/04/07 07:28:56;;;;;;;7.2;6.5;;;;;;;22.72;32.45313;989.7241;;;;
2019/04/07 07:31:22;;;;;;;6.9;6.3;;;;;;;22.74;32.41992;989.719;;;;
2019/04/07 07:33:56;;;;;;;7.8;7.1;;;;;;;22.76;32.40918;989.692;;;;
2019/04/07 07:36:21;;;;;;;7.3;6.7;;;;;;;22.76;32.4209;989.7017;;;;
2019/04/07 07:38:57;;;;;;;7.4;6.7;;;;;;;22.74;32.45508;989.7094;;;;
2019/04/07 07:41:24;;;;;;;7.5;6.7;;;;;;;22.79;32.41113;989.7438;;;;
2019/04/07 07:43:51;;;;;;;7.3;6.6;;;;;;;22.82;32.37891;989.7545;;;;
2019/04/07 07:46:24;;;;;;;7;6.4;;;;;;;22.88;32.28809;989.8246;;;;
2019/04/07 07:48:56;;;;;;;6.6;6;;;;;;;22.9;32.21875;989.8546;;;;
2019/04/07 07:51:35;;;;;;;6.9;6.2;;;;;;;22.9;32.25391;989.8781;;;;
2019/04/07 07:54:07;;;;;;;7.3;6.6;;;;;;;22.92;32.26758;989.8867;;;;
2019/04/07 07:56:39;;;;;;;7.2;6.5;;;;;;;22.94;32.26953;989.9595;;;;
2019/04/07 07:59:05;;;;;;;7.3;6.6;;;;;;;22.97;32.22363;989.9447;;;;
2019/04/07 08:01:35;;;;;;;7.5;6.7;;;;;;;23.06;32.10059;989.9001;;;;
2019/04/07 08:04:04;;;;;;;7.1;6.4;;;;;;;23.18;31.87305;989.918;;;;
2019/04/07 08:06:32;;;;;;;6.7;6.1;;;;;;;23.95;30.73242;989.986;;;;
2019/04/07 08:08:57;;;;;;;7.4;6.6;;;;;;;23.93;30.61328;989.921;;;;
2019/04/07 08:11:30;;;;;;;7;6.4;;;;;;;24.4;29.86328;989.9344;;;;
2019/04/07 08:13:57;;;;;;;7.4;6.7;;;;;;;25.27;28.63965;989.9914;;;;
2019/04/07 08:16:27;;;;;;;6.6;5.8;;;;;;;26.54;26.64941;989.9755;;;;
2019/04/07 08:18:59;;;;;;;6.4;5.8;;;;;;;26.81;26.1416;989.9913;;;;
2019/04/07 08:21:26;;;;;;;6.6;6;;;;;;;26.64;26.42969;990.0221;;;;
2019/04/07 08:23:52;;;;;;;6.5;5.9;;;;;;;27.35;25.46973;990.0359;;;;
2019/04/07 08:26:21;;;;;;;7.2;6.5;;;;;;;27.84;24.69824;989.961;;;;
2019/04/07 08:29:00;;;;;;;7.6;6.9;;;;;;;28.15;24.22559;990.0345;;;;
2019/04/07 08:31:28;;;;;;;7.6;6.9;;;;;;;28.52;23.69531;990.0103;;;;
2019/04/07 08:33:59;;;;;;;6.7;6.1;;;;;;;28.77;23.33789;990.0416;;;;
2019/04/07 08:36:25;;;;;;;6.3;5.8;;;;;;;28.89;23.12793;990.0541;;;;
2019/04/07 08:38:57;;;;;;;6.8;6.1;;;;;;;29.15;22.77051;990.0656;;;;
2019/04/07 08:41:31;;;;;;;6.4;5.7;;;;;;;29.45;22.40234;990.1281;;;;
2019/04/07 08:44:01;;;;;;;6.2;5.6;;;;;;;29.27;22.50098;990.1432;;;;
2019/04/07 08:46:32;;;;;;;6.1;5.4;;;;;;;29.01;22.85938;990.0549;;;;
2019/04/07 08:49:02;;;;;;;6.3;5.7;;;;;;;29.71;22.04395;990.0717;;;;
2019/04/07 08:51:28;;;;;;;7.1;5.7;;;;;;;29.79;21.91602;990.1194;;;;
2019/04/07 08:53:56;;;;;;;6.1;5.5;;;;;;;29.83;21.83398;990.0344;;;;
2019/04/07 08:56:24;;;;;;;6.5;5.9;;;;;;;29.7;21.92383;990.1055;;;;
2019/04/07 08:58:48;;;;;;;6.5;5.8;;;;;;;28.95;22.85645;990.1259;;;;
2019/04/07 09:01:18;;;;;;;6.3;5.7;;;;;;;27.2;25.10352;990.0028;;;;
2019/04/07 09:03:45;;;;;;;6.5;5.9;;;;;;;26.42;26.3457;990.0595;;;;
2019/04/07 09:06:10;;;;;;;6.7;6;;;;;;;26.16;26.83008;990.0045;;;;
2019/04/07 09:08:42;;;;;;;6.8;5.9;;;;;;;26.01;27.11816;990.0274;;;;
2019/04/07 09:11:18;;;;;;;6.5;5.6;;;;;;;25.8;27.49707;990.045;;;;
2019/04/07 09:13:55;;;;;;;6.5;5.8;;;;;;;25.77;27.56738;990.0718;;;;
2019/04/07 09:16:18;;;;;;;7.1;6.4;;;;;;;25.61;27.86621;990.0317;;;;
2019/04/07 09:18:57;;;;;;;8.4;6.4;;;;;;;25.48;28.07129;990.0055;;;;
2019/04/07 09:21:33;;;;;;;6.6;5.9;;;;;;;25.44;28.15234;990.0793;;;;
2019/04/07 09:24:05;;;;;;;6;5.5;;;;;;;25.35;28.26563;990.0854;;;;
2019/04/07 09:26:37;;;;;;;7.1;6;;;;;;;25.38;28.23145;990.074;;;;
2019/04/07 09:30:15;;;;;;;6.7;6.1;;;;;;;25.43;28.06836;990.144;;;;
2019/04/07 09:36:40;;;;;;;6.7;6;;;;;;;25.15;28.40723;990.2163;;;;
2019/04/07 09:39:27;;;;;;;5.9;5.3;;;;;;;25.19;28.33789;990.2249;;;;
2019/04/07 09:42:18;;;;;;;6.2;5.5;;;;;;;25.09;28.50977;990.2128;;;;
2019/04/07 09:44:14;;;;;;;5.5;5;;;;;;;24.98;28.7041;990.285;;;;
2019/04/07 09:50:02;;;;;;;6.9;6.2;;;;;;;25.05;28.60156;990.2592;;;;
2019/04/07 09:52:03;;;;;;;5.6;5;;;;;;;25.02;28.63574;990.3017;;;;
2019/04/07 09:55:42;;;;;;;5.6;5.1;;;;;;;25.02;28.68359;990.3566;;;;
2019/04/07 09:57:40;;;;;;;6.3;5.7;;;;;;;25.05;28.66113;990.3456;;;;
2019/04/07 10:09:36;;;;;;;7.5;6.8;;;;;;;24.87;29.04102;990.2845;;;;
2019/04/07 10:17:47;;;;;;;7.5;6.6;;;;;;;24.77;29.17676;990.2667;;;;
2019/04/07 10:24:52;;;;;;;6.1;5.2;;;;;;;24.63;29.52344;990.3538;;;;
2019/04/07 10:27:26;;;;;;;6.8;5.4;;;;;;;24.6;29.61621;990.4037;;;;
2019/04/07 10:29:51;;;;;;;5.5;5;;;;;;;24.57;29.69727;990.3268;;;;
2019/04/07 10:37:13;;;;;;;6.9;5.6;;;;;;;24.48;29.97559;990.3397;;;;
2019/04/07 10:39:45;;;;;;;6.1;5.5;;;;;;;24.47;29.99902;990.3376;;;;
2019/04/07 10:44:43;;;;;;;6.1;5.5;;;;;;;24.35;30.21582;990.3209;;;;
2019/04/07 10:47:22;;;;;;;5.5;5;;;;;;;24.32;30.24902;990.3496;;;;
2019/04/07 10:50:00;;;;;;;6.4;5.8;;;;;;;24.28;30.3291;990.3739;;;;
2019/04/07 10:52:39;;;;;;;6.3;5.7;;;;;;;24.26;30.44629;990.4092;;;;
2019/04/07 10:54:40;;;;;;;7.6;5.7;;;;;;;24.22;30.5498;990.4276;;;;
2019/04/07 10:57:20;;;;;;;6.4;5.4;;;;;;;24.26;30.50488;990.4381;;;;
2019/04/07 11:03:02;;;;;;;5.6;4.9;;;;;;;24.2;30.62012;990.3917;;;;
2019/04/07 11:07:19;;;;;;;5.9;5.2;;;;;;;24.24;30.55176;990.4867;;;;
2019/04/07 11:10:15;;;;;;;5.4;4.9;;;;;;;24.3;30.49609;990.4509;;;;
2019/04/07 11:12:48;;;;;;;5.7;5.2;;;;;;;24.38;30.38379;990.5097;;;;
2019/04/07 11:25:01;;;;;;;6.8;6.1;;;;;;;24.36;30.54785;990.4545;;;;
2019/04/07 11:30:12;;;;;;;5.8;5.2;;;;;;;24.37;30.54883;990.3978;;;;
2019/04/07 11:32:26;;;;;;;6;5.4;;;;;;;24.39;30.55078;990.5062;;;;
2019/04/07 11:35:13;;;;;;;6.5;5.8;;;;;;;24.38;30.57324;990.4548;;;;
2019/04/07 11:38:10;;;;;;;5.8;5.3;;;;;;;24.38;30.54883;990.4786;;;;
2019/04/07 11:40:04;;;;;;;5.5;4.9;;;;;;;24.35;30.57129;990.4579;;;;
2019/04/07 11:42:39;;;;;;;5.4;4.9;;;;;;;24.37;30.57227;990.4623;;;;
2019/04/07 11:47:46;;;;;;;5.8;5.2;;;;;;;24.34;30.73535;990.4462;;;;
2019/04/07 11:49:57;;;;;;;5.3;4.9;;;;;;;24.29;30.76855;990.4039;;;;
2019/04/07 11:57:41;;;;;;;6;5.4;;;;;;;24.21;30.95215;990.4409;;;;
2019/04/07 12:03:04;;;;;;;6.9;5.8;;;;;;;24.09;31.15723;990.4812;;;;
2019/04/07 12:07:17;;;;;;;7.9;6.7;;;;;;;24.04;31.2832;990.4522;;;;
2019/04/07 12:12:15;;;;;;;7.8;6.5;;;;;;;24.03;31.24805;990.55;;;;
2019/04/07 12:17:21;;;;;;;6.6;5.9;;;;;;;23.99;31.37402;990.4961;;;;
2019/04/07 12:19:57;;;;;;;6.1;5.4;;;;;;;23.94;31.4541;990.4771;;;;
2019/04/07 12:27:39;;;;;;;5.8;5.1;;;;;;;23.94;31.51367;990.5045;;;;
2019/04/07 12:30:03;;;;;;;6;5.4;;;;;;;23.93;31.54785;990.4827;;;;
2019/04/07 12:32:26;;;;;;;6.1;5.5;;;;;;;23.93;31.54785;990.4609;;;;
2019/04/07 12:35:06;;;;;;;6.3;5.7;;;;;;;23.94;31.54883;990.4437;;;;
2019/04/07 12:39:54;;;;;;;6.7;5.2;;;;;;;23.92;31.58203;990.3864;;;;
2019/04/07 12:52:30;;;;;;;6.6;5.4;;;;;;;23.91;31.77148;990.3058;;;;
2019/04/07 12:57:35;;;;;;;6.1;5.5;;;;;;;23.9;31.79492;990.3117;;;;
2019/04/07 13:00:08;;;;;;;5.8;5.3;;;;;;;23.91;31.80762;990.2824;;;;
2019/04/07 13:07:29;;;;;;;6.3;5.7;;;;;;;23.86;31.92188;990.2302;;;;
2019/04/07 13:09:55;;;;;;;7.2;6.1;;;;;;;23.86;31.94531;990.2224;;;;
2019/04/07 13:12:43;;;;;;;7.9;6.4;;;;;;;23.85;31.93262;990.2045;;;;
2019/04/07 13:16:19;;;;;;;7.1;5.4;;;;;;;23.83;31.95508;990.1644;;;;
2019/04/07 13:20:21;;;;;;;6.6;5.5;;;;;;;23.84;31.91992;990.2158;;;;
2019/04/07 13:25:01;;;;;;;6.4;5.3;;;;;;;23.87;31.875;990.2051;;;;
2019/04/07 13:30:20;;;;;;;6.5;5.5;;;;;;;23.85;31.93262;990.32;;;;
2019/04/07 13:32:41;;;;;;;7.1;5.9;;;;;;;23.86;31.92188;990.2889;;;;
2019/04/07 13:35:22;;;;;;;6.2;5.6;;;;;;;23.85;31.94434;990.2746;;;;
2019/04/07 13:37:36;;;;;;;6.7;5.9;;;;;;;23.86;31.93359;990.2771;;;;
2019/04/07 13:40:50;;;;;;;8.3;6.1;;;;;;;23.85;31.90918;990.2867;;;;
2019/04/07 13:43:24;;;;;;;6.2;5.6;;;;;;;23.84;31.9082;990.2488;;;;
2019/04/07 13:47:49;;;;;;;7.2;5.7;;;;;;;23.82;31.89551;990.2662;;;;
2019/04/07 13:50:03;;;;;;;6.8;5.8;;;;;;;23.86;31.82715;990.2811;;;;
2019/04/07 13:52:37;;;;;;;6;5.2;;;;;;;23.86;31.81543;990.2752;;;;
2019/04/07 13:57:36;;;;;;;6;5.2;;;;;;;23.84;31.9668;990.4094;;;;
2019/04/07 14:01:18;;;;;;;6.3;5.3;;;;;;;23.83;31.99023;990.421;;;;
2019/04/07 14:02:32;;;;;;;5.4;4.9;;;;;;;23.84;31.95508;990.3957;;;;
2019/04/07 14:10:23;;;;;;;5.4;4.9;;;;;;;23.85;31.99121;990.4253;;;;
2019/04/07 14:12:46;;;;;;;5.6;5.1;;;;;;;23.86;32.00488;990.4415;;;;
2019/04/07 14:15:05;;;;;;;5.6;5.1;;;;;;;23.84;32.06152;990.4368;;;;
2019/04/07 14:17:48;;;;;;;6.4;5.6;;;;;;;23.88;31.98242;990.35;;;;
2019/04/07 14:20:15;;;;;;;5.6;5;;;;;;;23.89;31.94727;990.3973;;;;
2019/04/07 14:22:37;;;;;;;5.6;5;;;;;;;23.89;31.92383;990.3836;;;;
2019/04/07 14:25:17;;;;;;;5.6;5.1;;;;;;;23.9;31.91211;990.4639;;;;
2019/04/07 14:30:18;;;;;;;5.6;5;;;;;;;23.87;32.0166;990.5025;;;;
2019/04/07 14:35:09;;;;;;;5.9;4.9;;;;;;;23.88;31.93555;990.4814;;;;
2019/04/07 14:42:35;;;;;;;4.6;4.2;;;;;;;23.84;32.08496;990.468;;;;
2019/04/07 14:47:39;;;;;;;5.3;4.8;;;;;;;23.8;32.16602;990.5179;;;;
2019/04/07 14:50:04;;;;;;;5.1;4.6;;;;;;;23.8;32.1543;990.481;;;;
2019/04/07 14:57:43;;;;;;;6.7;4.7;;;;;;;23.74;32.17383;990.532;;;;
2019/04/07 15:00:08;;;;;;;4.7;4.3;;;;;;;23.75;32.12695;990.4246;;;;
2019/04/07 15:02:16;;;;;;;5.2;4.3;;;;;;;23.77;32.05664;990.433;;;;
2019/04/07 15:04:57;;;;;;;4.7;4.3;;;;;;;23.76;32.10352;990.4601;;;;
2019/04/07 15:07:46;;;;;;;5.3;4.7;;;;;;;23.72;32.20703;990.4824;;;;
2019/04/07 15:10:01;;;;;;;5.6;4.8;;;;;;;23.72;32.25391;990.4647;;;;
2019/04/07 15:12:32;;;;;;;5;4.4;;;;;;;23.74;32.24414;990.4634;;;;
2019/04/07 15:14:56;;;;;;;5;4.5;;;;;;;23.72;32.30176;990.4002;;;;
2019/04/07 15:17:26;;;;;;;5.2;4.4;;;;;;;23.72;32.36133;990.4083;;;;
2019/04/07 15:19:57;;;;;;;4.9;4.4;;;;;;;23.69;32.44141;990.3703;;;;
2019/04/07 15:23:20;;;;;;;5.5;4.7;;;;;;;23.7;32.49023;990.431;;;;
2019/04/07 15:26:27;;;;;;;5.2;4.7;;;;;;;23.71;32.52539;990.5117;;;;
2019/04/07 15:29:36;;;;;;;5.2;4.8;;;;;;;23.74;32.45703;990.4772;;;;
2019/04/07 15:32:11;;;;;;;4.9;4.4;;;;;;;23.77;32.42285;990.4485;;;;
2019/04/07 15:34:38;;;;;;;5.3;4.3;;;;;;;23.76;32.49414;990.4445;;;;
2019/04/07 15:37:11;;;;;;;5.4;4.9;;;;;;;23.75;32.56445;990.4383;;;;
2019/04/07 15:39:39;;;;;;;6.1;4.8;;;;;;;23.75;32.6709;990.4423;;;;
2019/04/07 15:42:13;;;;;;;5.3;4.8;;;;;;;23.74;32.68164;990.4264;;;;
2019/04/07 15:44:41;;;;;;;5.3;4.8;;;;;;;23.77;32.67188;990.4741;;;;
2019/04/07 15:47:12;;;;;;;6;5;;;;;;;23.77;32.75488;990.4937;;;;
2019/04/07 15:49:44;;;;;;;5.9;5;;;;;;;23.78;32.69629;990.49;;;;
2019/04/07 15:52:13;;;;;;;5.2;4.7;;;;;;;23.79;32.6377;990.5392;;;;
2019/04/07 15:54:44;;;;;;;4.7;4.3;;;;;;;23.79;32.67285;990.5899;;;;
2019/04/07 15:57:17;;;;;;;5;4.5;;;;;;;23.8;32.63965;990.5769;;;;
2019/04/07 15:59:56;;;;;;;5;4.5;;;;;;;23.8;32.66211;990.5687;;;;
2019/04/07 16:03:06;;;;;;;4.8;4.4;;;;;;;23.8;32.60352;990.6139;;;;
2019/04/07 16:06:21;;;;;;;4.5;4.1;;;;;;;23.8;32.70996;990.6195;;;;
2019/04/07 16:09:39;;;;;;;4.9;4.4;;;;;;;23.81;32.60352;990.6394;;;;
2019/04/07 16:12:54;;;;;;;5.1;4.5;;;;;;;23.79;32.79199;990.6939;;;;
2019/04/07 16:16:12;;;;;;;4.8;4.3;;;;;;;23.78;32.79102;990.7366;;;;
2019/04/07 16:19:27;;;;;;;4.9;4.4;;;;;;;23.76;32.86133;990.7555;;;;
2019/04/07 16:22:41;;;;;;;4.8;4.4;;;;;;;23.77;32.86133;990.7439;;;;
2019/04/07 16:25:57;;;;;;;4.4;4;;;;;;;23.72;32.97559;990.807;;;;
2019/04/07 16:29:07;;;;;;;4.9;4.1;;;;;;;23.69;32.9502;990.8045;;;;
2019/04/07 16:31:39;;;;;;;5.1;4.6;;;;;;;23.66;33.04199;990.8797;;;;
2019/04/07 16:34:09;;;;;;;5.3;4.8;;;;;;;23.63;33.13477;990.9102;;;;
2019/04/07 16:36:40;;;;;;;6.1;4.6;;;;;;;23.63;33.12305;990.9827;;;;
2019/04/07 16:39:11;;;;;;;5.5;4.7;;;;;;;23.59;33.14355;991.009;;;;
2019/04/07 16:41:41;;;;;;;5.8;4.8;;;;;;;23.57;33.1543;991.0183;;;;
2019/04/07 16:44:12;;;;;;;4.6;4.1;;;;;;;23.56;33.18848;991.0453;;;;
2019/04/07 16:46:43;;;;;;;4.8;4.4;;;;;;;23.54;33.23438;991.1269;;;;
2019/04/07 16:49:14;;;;;;;5.1;4.6;;;;;;;23.51;33.31543;991.1239;;;;
2019/04/07 16:51:44;;;;;;;5.1;4.6;;;;;;;23.49;33.37305;991.1509;;;;
2019/04/07 16:54:57;;;;;;;5.4;4.9;;;;;;;23.49;33.37207;991.1938;;;;
2019/04/07 16:58:10;;;;;;;6.1;4.6;;;;;;;23.46;33.5;991.1362;;;;
2019/04/07 17:01:21;;;;;;;5.7;5;;;;;;;23.42;33.6748;991.1958;;;;
2019/04/07 17:04:33;;;;;;;6.2;5;;;;;;;23.38;33.79004;991.2824;;;;
2019/04/07 17:07:45;;;;;;;5;4.5;;;;;;;23.38;33.83691;991.3098;;;;
2019/04/07 17:10:18;;;;;;;5.6;4.8;;;;;;;23.35;33.88184;991.3794;;;;
2019/04/07 17:12:49;;;;;;;4.6;4.2;;;;;;;23.35;33.92969;991.4478;;;;
2019/04/07 17:15:19;;;;;;;4.6;4.2;;;;;;;23.3;34.16211;991.4833;;;;
2019/04/07 17:17:50;;;;;;;4.4;4;;;;;;;23.29;34.34961;991.4497;;;;
2019/04/07 17:20:21;;;;;;;5.4;4;;;;;;;23.24;34.60645;991.4836;;;;
2019/04/07 17:22:52;;;;;;;4;3.5;;;;;;;23.19;34.74512;991.5761;;;;
2019/04/07 17:25:23;;;;;;;5.9;4;;;;;;;23.15;34.93066;991.6627;;;;
2019/04/07 17:27:53;;;;;;;3.6;3.3;;;;;;;23.13;34.95215;991.6989;;;;
2019/04/07 17:30:25;;;;;;;5;3.4;;;;;;;23.09;34.96094;991.6448;;;;
2019/04/07 17:32:55;;;;;;;4.3;3.5;;;;;;;23.07;34.95898;991.7087;;;;
2019/04/07 17:35:26;;;;;;;3.6;3.1;;;;;;;23.1;34.84375;991.7428;;;;
2019/04/07 17:37:57;;;;;;;3.5;3.1;;;;;;;23.08;34.85449;991.7969;;;;
2019/04/07 17:40:31;;;;;;;3.5;3.1;;;;;;;23.03;34.9209;991.7228;;;;
2019/04/07 17:43:12;;;;;;;4.6;3.1;;;;;;;23.01;34.94238;991.8181;;;;
2019/04/07 17:48:06;;;;;;;3.5;2.8;;;;;;;22.97;34.97559;991.8225;;;;
2019/04/07 17:50:43;;;;;;;3.5;2.9;;;;;;;22.98;34.97559;991.8484;;;;
2019/04/07 17:58:14;;;;;;;3.9;2.6;;;;;;;22.96;34.99805;991.875;;;;
2019/04/07 18:04:26;;;;;;;2.9;2.6;;;;;;;22.94;35.02051;991.9936;;;;
2019/04/07 18:18:57;;;;;;;3.3;2.6;;;;;;;22.86;34.89551;992.2174;;;;
2019/04/07 18:26:12;;;;;;;3.2;2.6;;;;;;;22.83;34.83496;992.2188;;;;
2019/04/07 18:29:39;;;;;;;3.1;2.6;;;;;;;22.84;34.78809;992.2636;;;;
2019/04/07 18:34:29;;;;;;;2.5;2.3;;;;;;;22.8;34.82031;992.3348;;;;
2019/04/07 18:36:39;;;;;;;3.7;2.6;;;;;;;22.8;34.80859;992.364;;;;
2019/04/07 18:47:58;;;;;;;3.3;2.3;;;;;;;22.68;35.02246;992.6411;;;;
2019/04/07 18:51:16;;;;;;;3.3;2.6;;;;;;;22.68;35.01172;992.6902;;;;
2019/04/07 18:54:41;;;;;;;3.4;2.4;;;;;;;22.7;35.00098;992.7512;;;;
2019/04/07 18:58:04;;;;;;;3;2.4;;;;;;;22.71;34.93164;992.7791;;;;
2019/04/07 19:01:32;;;;;;;2.5;2.3;;;;;;;22.7;34.9541;992.7727;;;;
2019/04/07 19:05:12;;;;;;;2.9;2.4;;;;;;;22.7;34.94141;992.8511;;;;
2019/04/07 19:15:36;;;;;;;2.6;2.4;;;;;;;22.69;34.97656;992.913;;;;